0R0

Columbia-Marion County Airport

Columbia, Mississippi, USA
METAR K0R0 241855Z AUTO 23009G18KT 10SM FEW039 SCT046 BKN055 28/22 A2999 RMK AO2
Observed Flight Rules
Sep-24 @ 18:55 UTC (32 minutes ago) Visual Flight Rules
Wind Visibility Clouds
230° at 9 knots
 Gusting to 18 knots
10 miles
  • Few at 3,900' AGL
  • Scattered at 4,600' AGL
  • Broken at 5,500' AGL
Temperatures Readings
Current 28°C / 82°F
Dewpoint 22°C / 72°F
Humidity 70%
Altimeter 29.99" Hg
Pressure 1016 hPa
Elevation 81
METAR K0R0 241855Z AUTO 23009G18KT 10SM FEW039 SCT046 BKN055 28/22 A2999 RMK AO2
Observed Flight Rules
Sep-24 @ 18:55 UTC
(32 minutes ago)
VFR
Wind Visibility
230° at 9 knots
 Gusting to 18 knots
10 miles
Clouds
  • Few at 3,900' AGL
  • Scattered at 4,600' AGL
  • Broken at 5,500' AGL
Temperature Dewpoint
28°C / 82°F 22°C / 72°F
Humidity Altimeter Pressure
70% 29.99" Hg 1016 hPa